sensor_id;sensor_type;location;lat;lon;timestamp;P1;durP1;ratioP1;P2;durP2;ratioP2
24279;SDS011;12395;42.808;23.408;2023-12-20T00:05:00;12.83;;;6.00;;
24279;SDS011;12395;42.808;23.408;2023-12-20T00:07:25;14.87;;;5.50;;
24279;SDS011;12395;42.808;23.408;2023-12-20T00:09:51;13.83;;;6.50;;
24279;SDS011;12395;42.808;23.408;2023-12-20T00:12:16;17.10;;;7.10;;
24279;SDS011;12395;42.808;23.408;2023-12-20T00:14:41;15.33;;;7.27;;
24279;SDS011;12395;42.808;23.408;2023-12-20T00:20:39;15.67;;;6.90;;
24279;SDS011;12395;42.808;23.408;2023-12-20T00:23:05;16.13;;;6.70;;
24279;SDS011;12395;42.808;23.408;2023-12-20T00:25:30;19.07;;;8.87;;
24279;SDS011;12395;42.808;23.408;2023-12-20T00:27:56;18.13;;;7.70;;
24279;SDS011;12395;42.808;23.408;2023-12-20T00:30:21;16.13;;;7.30;;
24279;SDS011;12395;42.808;23.408;2023-12-20T00:32:46;18.13;;;8.07;;
24279;SDS011;12395;42.808;23.408;2023-12-20T00:35:13;17.13;;;7.57;;
24279;SDS011;12395;42.808;23.408;2023-12-20T00:48:20;12.77;;;5.57;;
24279;SDS011;12395;42.808;23.408;2023-12-20T00:50:46;14.77;;;5.70;;
24279;SDS011;12395;42.808;23.408;2023-12-20T00:53:12;18.17;;;7.37;;
24279;SDS011;12395;42.808;23.408;2023-12-20T00:55:37;17.30;;;7.67;;
24279;SDS011;12395;42.808;23.408;2023-12-20T00:58:02;21.03;;;8.50;;
24279;SDS011;12395;42.808;23.408;2023-12-20T01:00:28;19.80;;;8.47;;
24279;SDS011;12395;42.808;23.408;2023-12-20T01:02:53;19.03;;;8.97;;
24279;SDS011;12395;42.808;23.408;2023-12-20T01:05:18;18.30;;;8.67;;
24279;SDS011;12395;42.808;23.408;2023-12-20T01:07:44;21.43;;;9.60;;
24279;SDS011;12395;42.808;23.408;2023-12-20T01:10:10;24.17;;;8.97;;
24279;SDS011;12395;42.808;23.408;2023-12-20T01:12:35;19.90;;;8.87;;
24279;SDS011;12395;42.808;23.408;2023-12-20T01:15:01;18.40;;;7.97;;
24279;SDS011;12395;42.808;23.408;2023-12-20T01:17:26;19.50;;;8.20;;
24279;SDS011;12395;42.808;23.408;2023-12-20T01:19:52;18.40;;;8.20;;
24279;SDS011;12395;42.808;23.408;2023-12-20T01:22:17;20.27;;;9.37;;
24279;SDS011;12395;42.808;23.408;2023-12-20T01:24:43;19.80;;;9.00;;
24279;SDS011;12395;42.808;23.408;2023-12-20T01:27:08;17.43;;;8.17;;
24279;SDS011;12395;42.808;23.408;2023-12-20T01:29:33;17.83;;;8.00;;
24279;SDS011;12395;42.808;23.408;2023-12-20T01:31:59;13.70;;;6.93;;
24279;SDS011;12395;42.808;23.408;2023-12-20T01:34:24;16.50;;;7.67;;
24279;SDS011;12395;42.808;23.408;2023-12-20T01:36:49;17.00;;;7.90;;
24279;SDS011;12395;42.808;23.408;2023-12-20T01:39:15;18.70;;;8.23;;
24279;SDS011;12395;42.808;23.408;2023-12-20T01:41:40;21.90;;;8.97;;
24279;SDS011;12395;42.808;23.408;2023-12-20T01:44:05;21.97;;;9.17;;
24279;SDS011;12395;42.808;23.408;2023-12-20T01:46:31;22.67;;;8.80;;
24279;SDS011;12395;42.808;23.408;2023-12-20T01:48:56;18.73;;;8.13;;
24279;SDS011;12395;42.808;23.408;2023-12-20T01:51:22;20.93;;;8.60;;
24279;SDS011;12395;42.808;23.408;2023-12-20T01:53:48;19.00;;;8.70;;
24279;SDS011;12395;42.808;23.408;2023-12-20T01:56:14;20.83;;;8.73;;
24279;SDS011;12395;42.808;23.408;2023-12-20T01:58:45;21.30;;;9.55;;
24279;SDS011;12395;42.808;23.408;2023-12-20T02:01:12;22.73;;;10.20;;
24279;SDS011;12395;42.808;23.408;2023-12-20T02:03:39;20.37;;;9.47;;
24279;SDS011;12395;42.808;23.408;2023-12-20T02:06:06;20.02;;;10.45;;
24279;SDS011;12395;42.808;23.408;2023-12-20T02:08:32;24.73;;;11.35;;
24279;SDS011;12395;42.808;23.408;2023-12-20T02:10:58;21.47;;;9.47;;
24279;SDS011;12395;42.808;23.408;2023-12-20T02:13:24;23.93;;;11.10;;
24279;SDS011;12395;42.808;23.408;2023-12-20T02:15:51;25.20;;;10.45;;
24279;SDS011;12395;42.808;23.408;2023-12-20T02:18:17;26.43;;;12.07;;
24279;SDS011;12395;42.808;23.408;2023-12-20T02:20:42;27.20;;;13.00;;
24279;SDS011;12395;42.808;23.408;2023-12-20T02:23:08;32.63;;;14.53;;
24279;SDS011;12395;42.808;23.408;2023-12-20T02:25:33;35.47;;;15.30;;
24279;SDS011;12395;42.808;23.408;2023-12-20T02:27:58;30.37;;;14.83;;
24279;SDS011;12395;42.808;23.408;2023-12-20T02:30:24;32.67;;;13.63;;
24279;SDS011;12395;42.808;23.408;2023-12-20T02:32:49;27.93;;;12.70;;
24279;SDS011;12395;42.808;23.408;2023-12-20T02:35:16;31.20;;;12.97;;
24279;SDS011;12395;42.808;23.408;2023-12-20T02:37:41;33.60;;;13.87;;
24279;SDS011;12395;42.808;23.408;2023-12-20T02:40:07;26.27;;;12.30;;
24279;SDS011;12395;42.808;23.408;2023-12-20T02:42:33;28.20;;;12.20;;
24279;SDS011;12395;42.808;23.408;2023-12-20T02:44:58;23.40;;;11.57;;
24279;SDS011;12395;42.808;23.408;2023-12-20T02:47:23;27.17;;;12.67;;
24279;SDS011;12395;42.808;23.408;2023-12-20T02:49:49;30.97;;;14.33;;
24279;SDS011;12395;42.808;23.408;2023-12-20T02:52:14;26.73;;;14.60;;
24279;SDS011;12395;42.808;23.408;2023-12-20T02:54:40;31.50;;;13.50;;
24279;SDS011;12395;42.808;23.408;2023-12-20T02:57:05;30.77;;;13.43;;
24279;SDS011;12395;42.808;23.408;2023-12-20T02:59:31;27.80;;;13.30;;
24279;SDS011;12395;42.808;23.408;2023-12-20T03:01:56;31.23;;;13.93;;
24279;SDS011;12395;42.808;23.408;2023-12-20T03:04:22;31.63;;;14.37;;
24279;SDS011;12395;42.808;23.408;2023-12-20T03:06:47;24.70;;;11.37;;
24279;SDS011;12395;42.808;23.408;2023-12-20T03:09:12;25.87;;;11.37;;
24279;SDS011;12395;42.808;23.408;2023-12-20T03:11:38;22.10;;;9.83;;
24279;SDS011;12395;42.808;23.408;2023-12-20T03:14:04;24.20;;;10.33;;
24279;SDS011;12395;42.808;23.408;2023-12-20T03:16:29;23.27;;;10.50;;
24279;SDS011;12395;42.808;23.408;2023-12-20T03:18:56;22.90;;;10.20;;
24279;SDS011;12395;42.808;23.408;2023-12-20T03:21:21;24.27;;;11.30;;
24279;SDS011;12395;42.808;23.408;2023-12-20T03:23:47;25.13;;;11.83;;
24279;SDS011;12395;42.808;23.408;2023-12-20T03:26:12;30.27;;;12.60;;
24279;SDS011;12395;42.808;23.408;2023-12-20T03:28:38;31.60;;;13.53;;
24279;SDS011;12395;42.808;23.408;2023-12-20T03:31:03;31.87;;;12.53;;
24279;SDS011;12395;42.808;23.408;2023-12-20T03:33:29;30.23;;;13.10;;
24279;SDS011;12395;42.808;23.408;2023-12-20T03:35:54;34.37;;;15.23;;
24279;SDS011;12395;42.808;23.408;2023-12-20T03:38:20;37.57;;;15.27;;
24279;SDS011;12395;42.808;23.408;2023-12-20T03:40:46;28.47;;;12.57;;
24279;SDS011;12395;42.808;23.408;2023-12-20T03:43:11;28.97;;;13.00;;
24279;SDS011;12395;42.808;23.408;2023-12-20T03:45:36;26.87;;;12.03;;
24279;SDS011;12395;42.808;23.408;2023-12-20T03:48:02;29.03;;;11.30;;
24279;SDS011;12395;42.808;23.408;2023-12-20T03:50:28;23.90;;;10.20;;
24279;SDS011;12395;42.808;23.408;2023-12-20T03:52:54;22.93;;;10.63;;
24279;SDS011;12395;42.808;23.408;2023-12-20T03:55:19;25.10;;;12.03;;
24279;SDS011;12395;42.808;23.408;2023-12-20T03:57:44;39.10;;;12.07;;
24279;SDS011;12395;42.808;23.408;2023-12-20T04:00:10;23.47;;;12.23;;
24279;SDS011;12395;42.808;23.408;2023-12-20T04:02:36;28.37;;;12.53;;
24279;SDS011;12395;42.808;23.408;2023-12-20T04:05:06;31.03;;;13.60;;
24279;SDS011;12395;42.808;23.408;2023-12-20T04:07:32;32.53;;;14.63;;
24279;SDS011;12395;42.808;23.408;2023-12-20T04:09:57;33.87;;;14.47;;
24279;SDS011;12395;42.808;23.408;2023-12-20T04:12:23;35.13;;;13.63;;
24279;SDS011;12395;42.808;23.408;2023-12-20T04:14:48;39.30;;;17.03;;
24279;SDS011;12395;42.808;23.408;2023-12-20T04:17:15;32.97;;;12.20;;
24279;SDS011;12395;42.808;23.408;2023-12-20T04:19:44;31.67;;;13.07;;
24279;SDS011;12395;42.808;23.408;2023-12-20T04:22:09;30.43;;;12.50;;
24279;SDS011;12395;42.808;23.408;2023-12-20T04:24:34;25.13;;;12.43;;
24279;SDS011;12395;42.808;23.408;2023-12-20T04:27:00;32.67;;;13.53;;
24279;SDS011;12395;42.808;23.408;2023-12-20T04:29:26;29.33;;;11.40;;
24279;SDS011;12395;42.808;23.408;2023-12-20T04:31:51;26.23;;;11.63;;
24279;SDS011;12395;42.808;23.408;2023-12-20T04:34:17;27.37;;;12.43;;
24279;SDS011;12395;42.808;23.408;2023-12-20T04:36:43;25.83;;;10.87;;
24279;SDS011;12395;42.808;23.408;2023-12-20T04:39:08;29.53;;;11.27;;
24279;SDS011;12395;42.808;23.408;2023-12-20T04:41:33;26.93;;;11.60;;
24279;SDS011;12395;42.808;23.408;2023-12-20T04:43:59;34.33;;;14.80;;
24279;SDS011;12395;42.808;23.408;2023-12-20T04:46:25;29.60;;;12.17;;
24279;SDS011;12395;42.808;23.408;2023-12-20T04:48:51;28.07;;;12.90;;
24279;SDS011;12395;42.808;23.408;2023-12-20T04:51:16;32.10;;;13.43;;
24279;SDS011;12395;42.808;23.408;2023-12-20T04:53:41;35.60;;;12.40;;
24279;SDS011;12395;42.808;23.408;2023-12-20T04:56:07;37.27;;;13.43;;
24279;SDS011;12395;42.808;23.408;2023-12-20T04:58:32;40.33;;;13.77;;
24279;SDS011;12395;42.808;23.408;2023-12-20T05:00:57;30.87;;;13.50;;
24279;SDS011;12395;42.808;23.408;2023-12-20T05:03:23;32.70;;;13.03;;
24279;SDS011;12395;42.808;23.408;2023-12-20T05:05:48;35.47;;;13.03;;
24279;SDS011;12395;42.808;23.408;2023-12-20T05:08:14;27.23;;;12.07;;
24279;SDS011;12395;42.808;23.408;2023-12-20T05:10:40;27.33;;;12.67;;
24279;SDS011;12395;42.808;23.408;2023-12-20T05:13:05;29.87;;;12.10;;
24279;SDS011;12395;42.808;23.408;2023-12-20T05:15:31;29.90;;;13.73;;
24279;SDS011;12395;42.808;23.408;2023-12-20T05:17:56;29.03;;;10.70;;
24279;SDS011;12395;42.808;23.408;2023-12-20T05:20:21;22.53;;;10.37;;
24279;SDS011;12395;42.808;23.408;2023-12-20T05:22:48;24.23;;;11.07;;
24279;SDS011;12395;42.808;23.408;2023-12-20T05:25:13;26.67;;;11.40;;
24279;SDS011;12395;42.808;23.408;2023-12-20T05:27:39;22.87;;;9.93;;
24279;SDS011;12395;42.808;23.408;2023-12-20T05:30:04;32.97;;;12.73;;
24279;SDS011;12395;42.808;23.408;2023-12-20T05:32:30;33.30;;;13.27;;
24279;SDS011;12395;42.808;23.408;2023-12-20T05:34:56;32.17;;;13.87;;
24279;SDS011;12395;42.808;23.408;2023-12-20T05:37:21;31.87;;;14.20;;
24279;SDS011;12395;42.808;23.408;2023-12-20T05:39:47;32.53;;;13.87;;
24279;SDS011;12395;42.808;23.408;2023-12-20T05:42:12;35.33;;;14.80;;
24279;SDS011;12395;42.808;23.408;2023-12-20T05:44:37;36.73;;;16.80;;
24279;SDS011;12395;42.808;23.408;2023-12-20T05:47:03;34.63;;;14.23;;
24279;SDS011;12395;42.808;23.408;2023-12-20T05:49:28;38.17;;;14.47;;
24279;SDS011;12395;42.808;23.408;2023-12-20T05:51:54;32.40;;;14.70;;
24279;SDS011;12395;42.808;23.408;2023-12-20T05:54:19;45.60;;;16.10;;
24279;SDS011;12395;42.808;23.408;2023-12-20T05:56:44;32.67;;;13.17;;
24279;SDS011;12395;42.808;23.408;2023-12-20T05:59:10;32.40;;;13.87;;
24279;SDS011;12395;42.808;23.408;2023-12-20T06:01:35;45.20;;;15.33;;
24279;SDS011;12395;42.808;23.408;2023-12-20T06:04:00;35.77;;;14.40;;
24279;SDS011;12395;42.808;23.408;2023-12-20T06:06:26;39.13;;;14.80;;
24279;SDS011;12395;42.808;23.408;2023-12-20T06:08:51;41.77;;;14.67;;
24279;SDS011;12395;42.808;23.408;2023-12-20T06:11:16;48.63;;;13.10;;
24279;SDS011;12395;42.808;23.408;2023-12-20T06:13:42;40.93;;;14.03;;
24279;SDS011;12395;42.808;23.408;2023-12-20T06:16:07;37.50;;;13.30;;
24279;SDS011;12395;42.808;23.408;2023-12-20T06:18:33;55.73;;;14.80;;
24279;SDS011;12395;42.808;23.408;2023-12-20T06:20:58;47.93;;;13.03;;
24279;SDS011;12395;42.808;23.408;2023-12-20T06:23:23;43.50;;;12.77;;
24279;SDS011;12395;42.808;23.408;2023-12-20T06:25:49;42.87;;;13.03;;
24279;SDS011;12395;42.808;23.408;2023-12-20T06:28:14;43.40;;;12.40;;
24279;SDS011;12395;42.808;23.408;2023-12-20T06:30:40;31.40;;;12.37;;
24279;SDS011;12395;42.808;23.408;2023-12-20T06:33:05;29.93;;;12.43;;
24279;SDS011;12395;42.808;23.408;2023-12-20T06:35:32;27.13;;;11.63;;
24279;SDS011;12395;42.808;23.408;2023-12-20T06:37:57;26.87;;;11.57;;
24279;SDS011;12395;42.808;23.408;2023-12-20T06:40:23;26.37;;;12.20;;
24279;SDS011;12395;42.808;23.408;2023-12-20T06:42:48;29.07;;;12.47;;
24279;SDS011;12395;42.808;23.408;2023-12-20T06:45:14;27.03;;;12.13;;
24279;SDS011;12395;42.808;23.408;2023-12-20T06:47:39;24.70;;;11.97;;
24279;SDS011;12395;42.808;23.408;2023-12-20T06:50:05;41.67;;;16.73;;
24279;SDS011;12395;42.808;23.408;2023-12-20T06:52:30;40.27;;;17.37;;
24279;SDS011;12395;42.808;23.408;2023-12-20T06:54:56;37.83;;;16.23;;
24279;SDS011;12395;42.808;23.408;2023-12-20T06:57:21;48.50;;;18.33;;
24279;SDS011;12395;42.808;23.408;2023-12-20T06:59:46;57.67;;;18.93;;
24279;SDS011;12395;42.808;23.408;2023-12-20T07:02:12;52.43;;;15.37;;
24279;SDS011;12395;42.808;23.408;2023-12-20T07:04:40;37.73;;;13.17;;
24279;SDS011;12395;42.808;23.408;2023-12-20T07:07:06;44.27;;;13.73;;
24279;SDS011;12395;42.808;23.408;2023-12-20T07:09:32;61.50;;;15.33;;
24279;SDS011;12395;42.808;23.408;2023-12-20T07:11:58;52.10;;;15.07;;
24279;SDS011;12395;42.808;23.408;2023-12-20T07:14:24;55.57;;;14.23;;
24279;SDS011;12395;42.808;23.408;2023-12-20T07:16:49;51.53;;;14.97;;
24279;SDS011;12395;42.808;23.408;2023-12-20T07:19:15;49.83;;;15.60;;
24279;SDS011;12395;42.808;23.408;2023-12-20T07:21:40;50.67;;;15.47;;
24279;SDS011;12395;42.808;23.408;2023-12-20T07:24:05;45.17;;;16.50;;
24279;SDS011;12395;42.808;23.408;2023-12-20T07:26:31;46.90;;;18.50;;
24279;SDS011;12395;42.808;23.408;2023-12-20T07:28:56;65.27;;;21.80;;
24279;SDS011;12395;42.808;23.408;2023-12-20T07:31:23;51.30;;;19.75;;
24279;SDS011;12395;42.808;23.408;2023-12-20T07:33:49;58.70;;;22.10;;
24279;SDS011;12395;42.808;23.408;2023-12-20T07:36:14;52.77;;;20.27;;
24279;SDS011;12395;42.808;23.408;2023-12-20T07:38:39;63.17;;;25.03;;
24279;SDS011;12395;42.808;23.408;2023-12-20T07:41:08;101.57;;;34.60;;
24279;SDS011;12395;42.808;23.408;2023-12-20T07:43:34;97.37;;;35.07;;
24279;SDS011;12395;42.808;23.408;2023-12-20T07:46:03;102.10;;;36.70;;
24279;SDS011;12395;42.808;23.408;2023-12-20T07:48:34;105.73;;;37.10;;
24279;SDS011;12395;42.808;23.408;2023-12-20T07:51:00;153.50;;;46.97;;
24279;SDS011;12395;42.808;23.408;2023-12-20T07:53:26;121.53;;;40.47;;
24279;SDS011;12395;42.808;23.408;2023-12-20T07:55:52;75.03;;;26.07;;
24279;SDS011;12395;42.808;23.408;2023-12-20T07:58:17;111.67;;;35.97;;
24279;SDS011;12395;42.808;23.408;2023-12-20T08:00:43;97.73;;;35.03;;
24279;SDS011;12395;42.808;23.408;2023-12-20T08:03:09;99.00;;;29.17;;
24279;SDS011;12395;42.808;23.408;2023-12-20T08:05:34;79.73;;;24.87;;
24279;SDS011;12395;42.808;23.408;2023-12-20T08:07:59;106.63;;;32.47;;
24279;SDS011;12395;42.808;23.408;2023-12-20T08:10:25;94.40;;;29.90;;
24279;SDS011;12395;42.808;23.408;2023-12-20T08:12:50;82.43;;;29.60;;
24279;SDS011;12395;42.808;23.408;2023-12-20T08:15:16;84.97;;;30.23;;
24279;SDS011;12395;42.808;23.408;2023-12-20T08:17:41;82.93;;;29.13;;
24279;SDS011;12395;42.808;23.408;2023-12-20T08:20:07;130.03;;;40.73;;
24279;SDS011;12395;42.808;23.408;2023-12-20T08:22:32;121.23;;;39.80;;
24279;SDS011;12395;42.808;23.408;2023-12-20T08:24:58;117.37;;;37.07;;
24279;SDS011;12395;42.808;23.408;2023-12-20T08:27:23;110.90;;;37.30;;
24279;SDS011;12395;42.808;23.408;2023-12-20T08:29:48;114.40;;;39.37;;
24279;SDS011;12395;42.808;23.408;2023-12-20T08:32:15;119.22;;;37.40;;
24279;SDS011;12395;42.808;23.408;2023-12-20T08:34:41;89.60;;;32.13;;
24279;SDS011;12395;42.808;23.408;2023-12-20T08:37:06;101.60;;;37.03;;
24279;SDS011;12395;42.808;23.408;2023-12-20T08:39:31;88.40;;;33.30;;
24279;SDS011;12395;42.808;23.408;2023-12-20T08:41:58;91.20;;;35.08;;
24279;SDS011;12395;42.808;23.408;2023-12-20T08:44:24;81.40;;;31.63;;
24279;SDS011;12395;42.808;23.408;2023-12-20T08:46:49;76.73;;;28.73;;
24279;SDS011;12395;42.808;23.408;2023-12-20T08:49:15;72.17;;;27.63;;
24279;SDS011;12395;42.808;23.408;2023-12-20T08:51:40;95.63;;;27.50;;
24279;SDS011;12395;42.808;23.408;2023-12-20T08:54:06;72.40;;;27.17;;
24279;SDS011;12395;42.808;23.408;2023-12-20T08:56:33;67.07;;;25.50;;
24279;SDS011;12395;42.808;23.408;2023-12-20T08:58:58;65.10;;;26.10;;
24279;SDS011;12395;42.808;23.408;2023-12-20T09:01:24;67.70;;;25.10;;
24279;SDS011;12395;42.808;23.408;2023-12-20T09:03:49;60.13;;;24.03;;
24279;SDS011;12395;42.808;23.408;2023-12-20T09:06:15;69.47;;;26.17;;
24279;SDS011;12395;42.808;23.408;2023-12-20T09:08:40;89.07;;;27.40;;
24279;SDS011;12395;42.808;23.408;2023-12-20T09:11:06;58.07;;;21.67;;
24279;SDS011;12395;42.808;23.408;2023-12-20T09:13:32;67.13;;;21.97;;
24279;SDS011;12395;42.808;23.408;2023-12-20T09:15:57;68.63;;;23.23;;
24279;SDS011;12395;42.808;23.408;2023-12-20T09:18:23;78.50;;;24.53;;
24279;SDS011;12395;42.808;23.408;2023-12-20T09:20:48;64.37;;;23.83;;
24279;SDS011;12395;42.808;23.408;2023-12-20T09:23:14;77.50;;;23.93;;
24279;SDS011;12395;42.808;23.408;2023-12-20T09:25:39;64.77;;;23.37;;
24279;SDS011;12395;42.808;23.408;2023-12-20T09:28:05;60.60;;;23.40;;
24279;SDS011;12395;42.808;23.408;2023-12-20T09:30:30;53.17;;;22.30;;
24279;SDS011;12395;42.808;23.408;2023-12-20T09:32:56;67.50;;;24.17;;
24279;SDS011;12395;42.808;23.408;2023-12-20T09:35:22;69.60;;;27.30;;
24279;SDS011;12395;42.808;23.408;2023-12-20T09:37:47;96.30;;;36.83;;
24279;SDS011;12395;42.808;23.408;2023-12-20T09:40:13;85.00;;;33.37;;
24279;SDS011;12395;42.808;23.408;2023-12-20T09:45:14;75.00;;;30.03;;
24279;SDS011;12395;42.808;23.408;2023-12-20T09:47:42;76.57;;;31.45;;
24279;SDS011;12395;42.808;23.408;2023-12-20T09:50:11;72.60;;;30.37;;
24279;SDS011;12395;42.808;23.408;2023-12-20T09:52:37;68.10;;;27.13;;
24279;SDS011;12395;42.808;23.408;2023-12-20T09:55:04;63.07;;;27.60;;
24279;SDS011;12395;42.808;23.408;2023-12-20T09:57:31;71.90;;;28.55;;
24279;SDS011;12395;42.808;23.408;2023-12-20T09:59:57;85.47;;;31.50;;
24279;SDS011;12395;42.808;23.408;2023-12-20T10:02:23;86.80;;;34.57;;
24279;SDS011;12395;42.808;23.408;2023-12-20T10:04:52;80.40;;;32.73;;
24279;SDS011;12395;42.808;23.408;2023-12-20T10:07:19;78.35;;;31.58;;
24279;SDS011;12395;42.808;23.408;2023-12-20T10:09:44;73.63;;;30.33;;
24279;SDS011;12395;42.808;23.408;2023-12-20T10:12:11;78.93;;;31.23;;
24279;SDS011;12395;42.808;23.408;2023-12-20T10:14:38;75.13;;;31.93;;
24279;SDS011;12395;42.808;23.408;2023-12-20T10:17:04;73.03;;;30.77;;
24279;SDS011;12395;42.808;23.408;2023-12-20T10:19:30;78.03;;;30.43;;
24279;SDS011;12395;42.808;23.408;2023-12-20T10:21:57;73.20;;;30.83;;
24279;SDS011;12395;42.808;23.408;2023-12-20T10:24:24;69.07;;;29.60;;
24279;SDS011;12395;42.808;23.408;2023-12-20T10:26:57;72.10;;;28.70;;
24279;SDS011;12395;42.808;23.408;2023-12-20T10:29:30;56.33;;;25.63;;
24279;SDS011;12395;42.808;23.408;2023-12-20T10:31:57;65.47;;;27.73;;
24279;SDS011;12395;42.808;23.408;2023-12-20T10:34:23;63.13;;;26.40;;
24279;SDS011;12395;42.808;23.408;2023-12-20T10:36:49;73.30;;;29.10;;
24279;SDS011;12395;42.808;23.408;2023-12-20T10:39:14;61.10;;;27.47;;
24279;SDS011;12395;42.808;23.408;2023-12-20T10:41:40;73.00;;;29.83;;
24279;SDS011;12395;42.808;23.408;2023-12-20T10:44:07;81.10;;;31.83;;
24279;SDS011;12395;42.808;23.408;2023-12-20T10:46:34;75.45;;;30.27;;
24279;SDS011;12395;42.808;23.408;2023-12-20T10:49:01;80.83;;;30.37;;
24279;SDS011;12395;42.808;23.408;2023-12-20T10:51:27;82.37;;;29.77;;
24279;SDS011;12395;42.808;23.408;2023-12-20T10:53:55;71.07;;;27.95;;
24279;SDS011;12395;42.808;23.408;2023-12-20T10:56:21;71.77;;;30.13;;
24279;SDS011;12395;42.808;23.408;2023-12-20T10:58:48;78.15;;;32.65;;
24279;SDS011;12395;42.808;23.408;2023-12-20T11:01:15;74.03;;;29.67;;
24279;SDS011;12395;42.808;23.408;2023-12-20T11:03:48;72.40;;;30.00;;
24279;SDS011;12395;42.808;23.408;2023-12-20T11:08:50;85.93;;;32.67;;
24279;SDS011;12395;42.808;23.408;2023-12-20T11:11:35;85.57;;;32.23;;
24279;SDS011;12395;42.808;23.408;2023-12-20T11:14:11;88.17;;;33.13;;
24279;SDS011;12395;42.808;23.408;2023-12-20T11:16:42;82.27;;;32.90;;
24279;SDS011;12395;42.808;23.408;2023-12-20T11:19:07;86.50;;;33.43;;
24279;SDS011;12395;42.808;23.408;2023-12-20T11:21:32;86.90;;;31.80;;
24279;SDS011;12395;42.808;23.408;2023-12-20T11:24:02;79.83;;;32.17;;
24279;SDS011;12395;42.808;23.408;2023-12-20T11:26:29;83.00;;;32.07;;
24279;SDS011;12395;42.808;23.408;2023-12-20T11:29:28;81.30;;;29.77;;
24279;SDS011;12395;42.808;23.408;2023-12-20T11:31:56;70.67;;;28.50;;
24279;SDS011;12395;42.808;23.408;2023-12-20T11:34:22;91.47;;;29.30;;
24279;SDS011;12395;42.808;23.408;2023-12-20T11:36:58;73.23;;;28.07;;
24279;SDS011;12395;42.808;23.408;2023-12-20T11:39:25;76.73;;;27.80;;
24279;SDS011;12395;42.808;23.408;2023-12-20T11:41:51;78.70;;;29.77;;
24279;SDS011;12395;42.808;23.408;2023-12-20T11:44:17;94.60;;;32.70;;
24279;SDS011;12395;42.808;23.408;2023-12-20T11:46:44;78.33;;;31.33;;
24279;SDS011;12395;42.808;23.408;2023-12-20T11:49:09;103.65;;;32.63;;
24279;SDS011;12395;42.808;23.408;2023-12-20T11:51:34;119.73;;;31.63;;
24279;SDS011;12395;42.808;23.408;2023-12-20T11:54:00;148.77;;;31.93;;
24279;SDS011;12395;42.808;23.408;2023-12-20T11:56:25;98.17;;;30.10;;
24279;SDS011;12395;42.808;23.408;2023-12-20T11:58:51;86.63;;;30.77;;
24279;SDS011;12395;42.808;23.408;2023-12-20T12:01:16;87.33;;;30.23;;
24279;SDS011;12395;42.808;23.408;2023-12-20T12:03:41;94.47;;;32.43;;
24279;SDS011;12395;42.808;23.408;2023-12-20T12:06:08;102.87;;;32.17;;
24279;SDS011;12395;42.808;23.408;2023-12-20T12:08:33;97.97;;;31.70;;
24279;SDS011;12395;42.808;23.408;2023-12-20T12:10:58;91.00;;;34.23;;
24279;SDS011;12395;42.808;23.408;2023-12-20T12:13:24;86.50;;;31.63;;
24279;SDS011;12395;42.808;23.408;2023-12-20T12:15:52;88.63;;;32.87;;
24279;SDS011;12395;42.808;23.408;2023-12-20T12:18:18;85.60;;;31.97;;
24279;SDS011;12395;42.808;23.408;2023-12-20T12:20:44;85.33;;;33.87;;
24279;SDS011;12395;42.808;23.408;2023-12-20T12:23:09;89.73;;;30.03;;
24279;SDS011;12395;42.808;23.408;2023-12-20T12:25:35;110.87;;;30.33;;
24279;SDS011;12395;42.808;23.408;2023-12-20T12:28:02;118.97;;;28.65;;
24279;SDS011;12395;42.808;23.408;2023-12-20T12:30:27;78.10;;;28.67;;
24279;SDS011;12395;42.808;23.408;2023-12-20T12:32:53;93.70;;;30.53;;
24279;SDS011;12395;42.808;23.408;2023-12-20T12:35:20;100.68;;;30.60;;
24279;SDS011;12395;42.808;23.408;2023-12-20T12:37:46;96.00;;;29.77;;
24279;SDS011;12395;42.808;23.408;2023-12-20T12:40:13;84.57;;;30.63;;
24279;SDS011;12395;42.808;23.408;2023-12-20T12:42:40;123.70;;;31.80;;
24279;SDS011;12395;42.808;23.408;2023-12-20T12:45:06;142.27;;;33.23;;
24279;SDS011;12395;42.808;23.408;2023-12-20T12:47:33;97.87;;;30.97;;
24279;SDS011;12395;42.808;23.408;2023-12-20T12:49:59;103.10;;;30.17;;
24279;SDS011;12395;42.808;23.408;2023-12-20T12:52:24;89.67;;;28.63;;
24279;SDS011;12395;42.808;23.408;2023-12-20T12:54:49;84.43;;;27.40;;
24279;SDS011;12395;42.808;23.408;2023-12-20T12:57:15;86.13;;;27.87;;
24279;SDS011;12395;42.808;23.408;2023-12-20T12:59:41;84.87;;;27.70;;
24279;SDS011;12395;42.808;23.408;2023-12-20T13:02:08;81.93;;;29.00;;
24279;SDS011;12395;42.808;23.408;2023-12-20T13:04:34;82.23;;;29.60;;
24279;SDS011;12395;42.808;23.408;2023-12-20T13:06:59;70.87;;;29.00;;
24279;SDS011;12395;42.808;23.408;2023-12-20T13:09:25;74.77;;;29.17;;
24279;SDS011;12395;42.808;23.408;2023-12-20T13:11:50;71.83;;;30.60;;
24279;SDS011;12395;42.808;23.408;2023-12-20T13:14:16;77.07;;;31.13;;
24279;SDS011;12395;42.808;23.408;2023-12-20T13:16:41;77.83;;;33.03;;
24279;SDS011;12395;42.808;23.408;2023-12-20T13:19:07;92.77;;;33.73;;
24279;SDS011;12395;42.808;23.408;2023-12-20T13:21:33;92.33;;;35.33;;
24279;SDS011;12395;42.808;23.408;2023-12-20T13:23:58;78.80;;;33.50;;
24279;SDS011;12395;42.808;23.408;2023-12-20T13:26:24;83.37;;;35.13;;
24279;SDS011;12395;42.808;23.408;2023-12-20T13:28:49;90.07;;;38.30;;
24279;SDS011;12395;42.808;23.408;2023-12-20T13:31:15;82.70;;;36.33;;
24279;SDS011;12395;42.808;23.408;2023-12-20T13:33:40;89.33;;;34.37;;
24279;SDS011;12395;42.808;23.408;2023-12-20T13:36:06;94.63;;;35.67;;
24279;SDS011;12395;42.808;23.408;2023-12-20T13:38:31;108.30;;;37.90;;
24279;SDS011;12395;42.808;23.408;2023-12-20T13:40:57;96.20;;;36.60;;
24279;SDS011;12395;42.808;23.408;2023-12-20T13:43:23;91.80;;;35.33;;
24279;SDS011;12395;42.808;23.408;2023-12-20T13:45:49;107.13;;;34.43;;
24279;SDS011;12395;42.808;23.408;2023-12-20T13:48:15;100.80;;;36.23;;
24279;SDS011;12395;42.808;23.408;2023-12-20T13:50:40;106.50;;;37.80;;
24279;SDS011;12395;42.808;23.408;2023-12-20T13:53:05;127.37;;;36.50;;
24279;SDS011;12395;42.808;23.408;2023-12-20T13:55:31;117.37;;;38.13;;
24279;SDS011;12395;42.808;23.408;2023-12-20T13:57:56;132.80;;;37.33;;
24279;SDS011;12395;42.808;23.408;2023-12-20T14:00:22;114.33;;;35.33;;
24279;SDS011;12395;42.808;23.408;2023-12-20T14:02:48;166.67;;;35.80;;
24279;SDS011;12395;42.808;23.408;2023-12-20T14:05:15;111.57;;;36.93;;
24279;SDS011;12395;42.808;23.408;2023-12-20T14:10:09;137.83;;;36.63;;
24279;SDS011;12395;42.808;23.408;2023-12-20T14:12:36;160.48;;;38.35;;
24279;SDS011;12395;42.808;23.408;2023-12-20T14:15:03;146.30;;;36.28;;
24279;SDS011;12395;42.808;23.408;2023-12-20T14:17:29;177.93;;;32.57;;
24279;SDS011;12395;42.808;23.408;2023-12-20T14:19:58;115.97;;;31.13;;
24279;SDS011;12395;42.808;23.408;2023-12-20T14:22:23;127.87;;;31.47;;
24279;SDS011;12395;42.808;23.408;2023-12-20T14:24:50;163.07;;;31.38;;
24279;SDS011;12395;42.808;23.408;2023-12-20T14:27:15;206.67;;;34.60;;